createdAt,value
2018-02-21T00:03:31.091Z,100052.12
2018-02-21T00:09:35.660Z,100048.97
2018-02-21T00:15:41.042Z,100054.30
2018-02-21T00:21:45.512Z,100069.02
2018-02-21T00:27:50.080Z,100077.42
2018-02-21T00:33:55.311Z,100097.13
2018-02-21T00:39:59.849Z,100096.77
2018-02-21T00:46:04.683Z,100105.61
2018-02-21T00:52:09.580Z,100099.38
2018-02-21T00:58:14.156Z,100090.70
2018-02-21T01:04:18.877Z,100089.70
2018-02-21T01:10:23.835Z,100085.71
2018-02-21T01:16:28.362Z,100095.48
2018-02-21T01:22:33.091Z,100097.81
2018-02-21T01:28:37.695Z,100099.33
2018-02-21T01:34:42.599Z,100113.77
2018-02-21T01:40:47.094Z,100110.09
2018-02-21T01:46:52.647Z,100112.75
2018-02-21T01:52:58.092Z,100116.73
2018-02-21T01:59:02.615Z,100119.12
2018-02-21T02:05:07.379Z,100128.11
2018-02-21T02:11:11.978Z,100131.34
2018-02-21T02:17:16.694Z,100136.03
2018-02-21T02:23:22.478Z,100139.23
2018-02-21T02:29:27.006Z,100146.19
2018-02-21T02:35:31.499Z,100146.56
2018-02-21T02:41:36.105Z,100132.98
2018-02-21T02:47:40.653Z,100137.34
2018-02-21T02:53:45.243Z,100144.94
2018-02-21T02:59:50.297Z,100143.14
2018-02-21T03:05:55.036Z,100136.83
2018-02-21T03:12:00.280Z,100131.95
2018-02-21T03:18:04.828Z,100138.38
2018-02-21T03:24:09.662Z,100135.86
2018-02-21T03:30:14.286Z,100128.69
2018-02-21T03:36:19.758Z,100116.91
2018-02-21T03:42:25.433Z,100099.55
2018-02-21T03:48:30.004Z,100113.27
2018-02-21T03:54:34.733Z,100119.38
2018-02-21T04:00:40.303Z,100098.72
2018-02-21T04:06:45.438Z,100112.71
2018-02-21T04:12:50.292Z,100134.13
2018-02-21T04:19:01.696Z,100135.19
2018-02-21T04:25:06.255Z,100142.37
2018-02-21T04:31:10.920Z,100161.64
2018-02-21T04:37:16.191Z,100192.95
2018-02-21T04:43:21.842Z,100195.86
2018-02-21T04:49:26.411Z,100196.23
2018-02-21T05:02:09.538Z,100172.30
2018-02-21T05:08:14.076Z,100154.73
2018-02-21T05:14:19.448Z,100168.30
2018-02-21T05:20:24.224Z,100164.77
2018-02-21T05:26:28.820Z,100167.39
2018-02-21T05:32:33.465Z,100177.13
2018-02-21T05:38:38.059Z,100183.86
2018-02-21T05:44:44.105Z,100190.03
2018-02-21T05:50:48.972Z,100187.04
2018-02-21T05:56:53.980Z,100191.44
2018-02-21T06:02:58.524Z,100197.63
2018-02-21T06:09:03.124Z,100217.55
2018-02-21T06:15:07.721Z,100232.39
2018-02-21T06:21:12.220Z,100241.91
2018-02-21T06:27:17.626Z,100243.87
2018-02-21T06:33:22.772Z,100233.61
2018-02-21T06:39:27.372Z,100237.00
2018-02-21T06:45:31.977Z,100235.32
2018-02-21T06:51:36.576Z,100239.19
2018-02-21T06:57:41.180Z,100252.71
2018-02-21T07:03:45.732Z,100247.39
2018-02-21T07:09:51.047Z,100249.09
2018-02-21T07:15:55.621Z,100253.73
2018-02-21T07:22:00.182Z,100254.16
2018-02-21T07:28:04.775Z,100247.35
2018-02-21T07:34:09.893Z,100248.36
2018-02-21T07:40:14.573Z,100269.92
2018-02-21T07:46:19.138Z,100271.45
2018-02-21T07:52:23.792Z,100261.76
2018-02-21T07:58:28.492Z,100258.17
2018-02-21T08:04:33.023Z,100283.55
2018-02-21T08:10:37.567Z,100290.55
2018-02-21T08:16:42.124Z,100285.30
2018-02-21T08:22:46.686Z,100287.25
2018-02-21T08:28:52.322Z,100287.28
2018-02-21T08:34:56.884Z,100291.65
2018-02-21T08:41:01.402Z,100266.47
2018-02-21T08:47:05.946Z,100257.05
2018-02-21T08:53:10.661Z,100258.23
2018-02-21T08:59:15.300Z,100245.08
2018-02-21T09:05:19.924Z,100250.30
2018-02-21T09:11:24.427Z,100256.73
2018-02-21T09:17:29.216Z,100259.47
2018-02-21T09:23:34.503Z,100251.61
2018-02-21T09:29:39.199Z,100246.85
2018-02-21T09:35:43.760Z,100243.23
2018-02-21T09:41:48.494Z,100235.03
2018-02-21T09:47:53.260Z,100246.85
2018-02-21T09:53:58.752Z,100245.20
2018-02-21T10:00:04.056Z,100253.01
2018-02-21T10:06:08.519Z,100258.20
2018-02-21T10:12:13.357Z,100269.19
2018-02-21T10:18:17.883Z,100276.69
2018-02-21T10:24:22.436Z,100281.67
2018-02-21T10:30:26.955Z,100279.73
2018-02-21T10:36:32.230Z,100278.11
2018-02-21T10:42:37.044Z,100274.42
2018-02-21T10:48:41.685Z,100269.33
2018-02-21T10:54:46.283Z,100267.25
2018-02-21T11:07:33.090Z,100250.39
2018-02-21T11:13:37.599Z,100242.45
2018-02-21T11:19:42.875Z,100237.30
2018-02-21T11:25:47.411Z,100232.42
2018-02-21T11:31:53.882Z,100220.37
2018-02-21T11:37:58.507Z,100225.91
2018-02-21T11:44:03.004Z,100223.50
2018-02-21T11:50:07.556Z,100215.82
2018-02-21T11:56:12.109Z,100225.56
2018-02-21T12:02:16.706Z,100223.67
2018-02-21T12:08:22.206Z,100224.69
2018-02-21T12:14:26.792Z,100226.63
2018-02-21T12:20:31.345Z,100223.07
2018-02-21T12:26:35.905Z,100219.19
2018-02-21T12:32:53.471Z,100218.27
2018-02-21T12:39:03.586Z,100206.87
2018-02-21T12:45:08.082Z,100207.84
2018-02-21T12:51:12.797Z,100197.55
2018-02-21T12:57:18.171Z,100181.25
2018-02-21T13:03:22.929Z,100184.61
2018-02-21T13:09:27.478Z,100179.06
2018-02-21T13:15:32.082Z,100166.64
2018-02-21T13:21:36.759Z,100162.00
2018-02-21T13:27:41.454Z,100171.27
2018-02-21T13:33:46.002Z,100157.74
2018-02-21T13:39:50.701Z,100157.78
2018-02-21T13:45:55.679Z,100146.12
2018-02-21T13:52:00.308Z,100151.77
2018-02-21T13:58:05.585Z,100150.92
2018-02-21T14:04:10.218Z,100146.84
2018-02-21T14:10:15.529Z,100152.20
2018-02-21T14:16:20.109Z,100146.25
2018-02-21T14:22:24.864Z,100144.38
2018-02-21T14:28:30.281Z,100147.68
2018-02-21T14:34:34.818Z,100150.23
2018-02-21T14:40:39.381Z,100151.98
2018-02-21T14:46:44.036Z,100147.85
2018-02-21T14:52:49.391Z,100142.46
2018-02-21T14:58:54.983Z,100151.88
2018-02-21T15:04:59.522Z,100147.58
2018-02-21T15:11:04.038Z,100155.21
2018-02-21T15:17:08.585Z,100158.45
2018-02-21T15:23:13.155Z,100163.25
2018-02-21T15:29:17.876Z,100163.88
2018-02-21T15:35:23.446Z,100170.08
2018-02-21T15:41:27.957Z,100170.73
2018-02-21T15:47:32.497Z,100175.75
2018-02-21T15:53:37.050Z,100178.83
2018-02-21T15:59:42.386Z,100184.50
2018-02-21T16:05:46.988Z,100187.64
2018-02-21T16:11:51.659Z,100187.02
2018-02-21T16:17:56.176Z,100196.95
2018-02-21T16:24:01.636Z,100195.34
2018-02-21T16:30:06.262Z,100193.08
2018-02-21T16:36:11.981Z,100195.23
2018-02-21T16:42:16.533Z,100196.47
2018-02-21T16:48:21.224Z,100202.77
2018-02-21T16:54:27.293Z,100204.05
2018-02-21T17:00:31.822Z,100211.27
2018-02-21T17:06:37.136Z,100213.09
2018-02-21T17:12:41.647Z,100216.19
2018-02-21T17:18:46.231Z,100229.39
2018-02-21T17:24:50.955Z,100224.19
2018-02-21T17:30:55.546Z,100228.20
2018-02-21T17:37:00.091Z,100240.52
2018-02-21T17:43:04.693Z,100251.78
2018-02-21T17:49:09.955Z,100252.67
2018-02-21T17:55:14.487Z,100255.91
2018-02-21T18:01:19.417Z,100253.94
2018-02-21T18:07:24.238Z,100264.87
2018-02-21T18:13:29.552Z,100263.05
2018-02-21T18:19:34.332Z,100263.30
2018-02-21T18:25:39.607Z,100258.19
2018-02-21T18:31:44.913Z,100265.83
2018-02-21T18:37:50.271Z,100270.39
2018-02-21T18:43:55.222Z,100276.05
2018-02-21T18:49:59.748Z,100278.37
2018-02-21T18:56:04.300Z,100270.42
2018-02-21T19:02:08.895Z,100273.56
2018-02-21T19:08:13.461Z,100273.31
2018-02-21T19:14:18.518Z,100275.91
2018-02-21T19:20:23.842Z,100281.08
2018-02-21T19:26:28.362Z,100278.88
2018-02-21T19:32:37.895Z,100278.59
2018-02-21T19:38:42.424Z,100289.77
2018-02-21T19:44:47.152Z,100296.03
2018-02-21T19:50:51.731Z,100291.49
2018-02-21T19:56:56.324Z,100288.31
2018-02-21T20:03:00.845Z,100287.80
2018-02-21T20:09:05.639Z,100293.17
2018-02-21T20:15:12.887Z,100293.42
2018-02-21T20:21:18.348Z,100300.73
2018-02-21T20:27:23.345Z,100296.72
2018-02-21T20:33:29.025Z,100290.00
2018-02-21T20:39:35.092Z,100300.80
2018-02-21T20:45:40.074Z,100297.70
2018-02-21T20:51:44.923Z,100302.17
2018-02-21T20:57:50.705Z,100305.80
2018-02-21T21:03:55.410Z,100307.18
2018-02-21T21:10:00.478Z,100303.16
2018-02-21T21:16:05.244Z,100302.41
2018-02-21T21:22:10.860Z,100298.34
2018-02-21T21:28:15.662Z,100295.13
2018-02-21T21:34:20.524Z,100295.54
2018-02-21T21:40:25.219Z,100307.39
2018-02-21T21:46:30.011Z,100299.11
2018-02-21T21:52:34.712Z,100305.30
2018-02-21T21:58:39.829Z,100296.72
2018-02-21T22:04:45.800Z,100302.92
2018-02-21T22:10:50.968Z,100297.84
2018-02-21T22:16:56.383Z,100296.64
2018-02-21T22:23:03.025Z,100305.42
2018-02-21T22:29:08.736Z,100304.15
2018-02-21T22:35:13.461Z,100302.86
2018-02-21T22:41:19.104Z,100301.27
2018-02-21T22:47:25.712Z,100300.85
2018-02-21T22:53:30.954Z,100298.84
2018-02-21T22:59:35.595Z,100293.91
2018-02-21T23:05:41.286Z,100301.87
2018-02-21T23:11:46.044Z,100290.78
2018-02-21T23:17:51.396Z,100296.62
2018-02-21T23:23:58.177Z,100295.78
2018-02-21T23:30:02.972Z,100293.17
2018-02-21T23:36:07.921Z,100296.98
2018-02-21T23:42:12.576Z,100296.28
2018-02-21T23:48:17.287Z,100295.52
2018-02-21T23:54:23.129Z,100288.46
